Time;durP1;ratioP1;P1;durP2;ratioP2;P2;SDS_P1;SDS_P2;PMS_P1;PMS_P2;Temp;Humidity;BMP_temperature;BMP_pressure;BME280_temperature;BME280_humidity;BME280_pressure;Samples;Min_cycle;Max_cycle;Signal;HPM_P1;HPM_P2
2021/10/23 00:01:43;;;;;;;9.68;3.20;;;;;;;9.86;52.72;99508.78;5053642;28;20487;-50
2021/10/23 00:04:09;;;;;;;13.90;3.20;;;;;;;9.65;53.50;99510.25;5035743;28;20075;-50
2021/10/23 00:06:34;;;;;;;7.68;3.15;;;;;;;9.31;53.81;99521.09;5053607;28;20082;-50
2021/10/23 00:09:00;;;;;;;8.38;3.88;;;;;;;8.89;54.98;99525.66;5035530;28;20025;-50
2021/10/23 00:11:26;;;;;;;41.20;20.27;;;;;;;8.77;55.51;99532.25;5035496;28;20060;-50
2021/10/23 00:13:52;;;;;;;19.10;9.73;;;;;;;9.06;56.25;99521.19;5053527;28;20028;-50
2021/10/23 00:16:18;;;;;;;13.82;8.02;;;;;;;9.44;55.50;99512.66;5054001;28;20111;-50
2021/10/23 00:18:43;;;;;;;10.45;3.28;;;;;;;9.74;54.64;99514.44;5053393;28;20108;-50
2021/10/23 00:21:12;;;;;;;8.85;3.10;;;;;;;9.78;53.98;99520.16;5053288;28;20040;-51
2021/10/23 00:23:37;;;;;;;9.65;3.63;;;;;;;9.49;53.88;99512.97;5051983;28;20376;-50
2021/10/23 00:26:03;;;;;;;11.32;3.78;;;;;;;9.16;54.80;99521.00;5053455;28;20090;-50
2021/10/23 00:28:29;;;;;;;13.70;3.10;;;;;;;9.02;56.14;99519.91;5053119;28;20499;-49
2021/10/23 00:30:54;;;;;;;11.85;3.10;;;;;;;9.30;55.79;99520.28;5053126;28;20056;-50
2021/10/23 00:33:20;;;;;;;12.82;2.95;;;;;;;9.59;54.92;99514.38;5053061;28;20430;-50
2021/10/23 00:35:46;;;;;;;15.63;3.45;;;;;;;9.72;54.19;99516.44;5035122;28;20119;-50
2021/10/23 00:38:12;;;;;;;10.55;3.03;;;;;;;9.77;54.27;99521.94;5035135;28;20021;-50
2021/10/23 00:40:38;;;;;;;13.95;3.05;;;;;;;9.80;54.02;99516.38;5052898;28;20037;-50
2021/10/23 00:43:04;;;;;;;12.80;2.78;;;;;;;9.85;53.97;99515.03;5052918;28;20025;-50
2021/10/23 00:45:29;;;;;;;10.57;3.20;;;;;;;9.93;54.14;99521.03;5052815;28;20483;-50
2021/10/23 00:47:55;;;;;;;11.55;3.15;;;;;;;9.99;53.55;99519.50;5052787;28;20033;-50
2021/10/23 00:50:21;;;;;;;8.93;2.95;;;;;;;9.89;53.57;99517.13;5052398;28;20091;-50
2021/10/23 00:52:49;;;;;;;9.57;2.90;;;;;;;9.67;53.92;99518.75;5052673;28;20017;-50
2021/10/23 00:55:14;;;;;;;12.68;2.95;;;;;;;9.45;53.97;99515.09;5052524;28;20044;-50
2021/10/23 00:57:40;;;;;;;10.88;3.58;;;;;;;9.19;54.57;99521.47;5052558;28;20025;-50
2021/10/23 01:00:08;;;;;;;15.20;3.25;;;;;;;9.01;55.34;99526.09;5052184;28;20499;-50
2021/10/23 01:02:35;;;;;;;6.68;3.15;;;;;;;8.83;54.99;99523.72;5052520;28;20052;-50
2021/10/23 01:05:03;;;;;;;9.80;3.13;;;;;;;8.63;55.54;99533.75;5051153;28;20130;-50
2021/10/23 01:07:29;;;;;;;9.93;2.95;;;;;;;8.43;55.92;99524.63;5052414;28;20027;-50
2021/10/23 01:09:54;;;;;;;14.30;3.30;;;;;;;8.23;56.92;99524.94;5052316;28;20033;-50
2021/10/23 01:12:20;;;;;;;14.10;2.88;;;;;;;8.22;56.88;99525.91;5052300;28;20017;-50
2021/10/23 01:14:46;;;;;;;10.52;3.45;;;;;;;8.31;57.35;99521.50;5034401;28;20463;-49
2021/10/23 01:17:18;;;;;;;13.48;3.45;;;;;;;8.49;57.29;99514.31;5052295;28;20509;-50
2021/10/23 01:19:54;;;;;;;9.68;3.13;;;;;;;8.57;56.48;99516.94;5052331;28;20033;-50
2021/10/23 01:22:30;;;;;;;8.65;2.83;;;;;;;8.54;56.68;99521.66;5052269;28;20028;-49
2021/10/23 01:24:56;;;;;;;12.38;3.28;;;;;;;8.49;56.58;99523.94;5052144;28;20510;-50
2021/10/23 01:27:22;;;;;;;9.52;3.30;;;;;;;8.53;57.27;99514.78;5052074;28;20075;-51
2021/10/23 01:29:48;;;;;;;20.05;3.55;;;;;;;8.69;57.15;99512.16;5052013;28;20434;-50
2021/10/23 01:32:14;;;;;;;15.13;3.67;;;;;;;8.93;57.09;99511.28;5034077;28;20510;-50
2021/10/23 01:34:40;;;;;;;18.00;3.67;;;;;;;9.20;56.62;99510.00;5051999;28;20108;-50
2021/10/23 01:37:05;;;;;;;14.13;3.53;;;;;;;9.63;55.98;99514.84;5034023;28;20464;-50
2021/10/23 01:39:34;;;;;;;11.75;3.55;;;;;;;9.62;55.25;99509.75;5051929;28;20028;-50
2021/10/23 01:42:00;;;;;;;10.27;3.35;;;;;;;9.56;55.94;99508.69;5051867;28;20095;-50
2021/10/23 01:44:33;;;;;;;12.10;3.20;;;;;;;9.65;55.56;99497.13;5033986;28;20533;-50
2021/10/23 01:47:00;;;;;;;14.90;4.07;;;;;;;9.78;55.42;99500.00;5050540;28;20028;-50
2021/10/23 01:49:26;;;;;;;15.38;3.90;;;;;;;9.90;55.23;99504.81;5051738;28;20025;-50
2021/10/23 01:51:52;;;;;;;8.73;3.45;;;;;;;9.97;54.88;99501.31;5051450;28;20049;-51
2021/10/23 01:54:17;;;;;;;11.45;3.25;;;;;;;9.95;54.60;99499.88;5051700;28;20033;-50
2021/10/23 01:56:43;;;;;;;9.57;3.05;;;;;;;9.90;54.92;99497.78;5051765;28;20072;-49
2021/10/23 01:59:09;;;;;;;15.18;4.10;;;;;;;9.86;54.88;99496.50;5051771;28;20025;-50
2021/10/23 02:01:35;;;;;;;15.00;3.55;;;;;;;9.67;54.93;99489.91;5051656;28;20103;-50
2021/10/23 02:04:01;;;;;;;15.35;3.53;;;;;;;9.56;55.48;99490.34;5050395;28;20032;-49
2021/10/23 02:06:27;;;;;;;17.10;3.63;;;;;;;9.43;55.76;99485.66;5033750;28;20036;-50
2021/10/23 02:08:53;;;;;;;10.55;3.83;;;;;;;9.43;55.47;99495.31;5033646;28;20395;-50
2021/10/23 02:11:19;;;;;;;10.32;3.45;;;;;;;9.34;55.95;99491.94;5035918;28;20111;-50
2021/10/23 02:13:45;;;;;;;15.80;3.58;;;;;;;9.26;56.24;99494.59;5055808;28;20577;-50
2021/10/23 02:16:11;;;;;;;10.13;2.78;;;;;;;9.16;56.48;99500.84;5055697;28;20172;-50
2021/10/23 02:18:37;;;;;;;14.65;3.92;;;;;;;9.22;57.03;99495.94;5055818;28;20028;-50
2021/10/23 02:21:06;;;;;;;12.45;3.42;;;;;;;9.42;56.59;99493.66;5055631;28;20025;-50
2021/10/23 02:23:32;;;;;;;14.43;4.68;;;;;;;9.51;56.39;99493.44;5055598;28;20491;-50
2021/10/23 02:25:58;;;;;;;11.88;3.63;;;;;;;9.49;56.26;99492.00;5037563;28;20029;-50
2021/10/23 02:28:26;;;;;;;18.98;4.07;;;;;;;9.42;56.37;99491.88;5055455;28;20020;-49
2021/10/23 02:30:52;;;;;;;8.50;3.40;;;;;;;9.38;56.40;99488.00;5055424;28;20021;-50
2021/10/23 02:33:18;;;;;;;12.40;4.32;;;;;;;9.37;56.33;99481.91;5037422;28;20025;-49
2021/10/23 02:35:43;;;;;;;10.82;3.78;;;;;;;9.40;56.43;99478.97;5037367;28;20238;-49
2021/10/23 02:38:13;;;;;;;10.68;3.53;;;;;;;9.36;56.46;99474.25;5055286;28;20108;-50
2021/10/23 02:40:38;;;;;;;32.47;4.53;;;;;;;9.30;56.79;99480.19;5055205;28;20075;-50
2021/10/23 02:43:05;;;;;;;8.50;3.63;;;;;;;9.44;57.03;99479.44;5037239;28;20028;-50
2021/10/23 02:45:31;;;;;;;18.10;4.05;;;;;;;9.68;56.36;99488.94;5055129;28;20021;-50
2021/10/23 02:48:00;;;;;;;12.88;3.90;;;;;;;9.80;55.49;99484.91;5037171;28;20021;-50
2021/10/23 02:50:25;;;;;;;12.07;2.70;;;;;;;9.65;55.72;99480.59;5036761;28;20465;-49
2021/10/23 02:52:51;;;;;;;13.63;3.95;;;;;;;9.60;56.08;99487.19;5054995;28;20024;-49
2021/10/23 02:55:17;;;;;;;14.85;3.90;;;;;;;9.58;56.00;99494.41;5054899;28;20025;-50
2021/10/23 02:57:42;;;;;;;13.82;3.80;;;;;;;9.67;56.09;99489.09;5054963;28;20017;-50
2021/10/23 03:00:09;;;;;;;14.38;3.80;;;;;;;9.76;55.82;99494.13;5036892;28;20071;-50
2021/10/23 03:02:35;;;;;;;15.88;3.65;;;;;;;9.89;55.74;99493.53;5054739;28;20108;-49
2021/10/23 03:05:03;;;;;;;7.70;3.20;;;;;;;9.91;55.38;99494.16;5054852;28;20082;-50
2021/10/23 03:07:32;;;;;;;12.48;3.92;;;;;;;9.77;55.20;99493.13;5055029;28;20025;-50
2021/10/23 03:09:58;;;;;;;14.48;3.72;;;;;;;9.67;55.64;99487.28;5036589;28;20379;-49
2021/10/23 03:12:24;;;;;;;12.63;3.70;;;;;;;9.75;56.08;99489.03;5036670;28;20119;-50
2021/10/23 03:14:50;;;;;;;21.15;4.97;;;;;;;9.81;55.53;99493.59;5054643;28;20143;-49
2021/10/23 03:17:16;;;;;;;12.70;3.67;;;;;;;9.85;55.66;99494.88;5054518;28;20013;-50
2021/10/23 03:19:42;;;;;;;11.55;5.03;;;;;;;9.84;55.35;99505.53;5054516;28;20037;-49
2021/10/23 03:22:07;;;;;;;16.20;5.10;;;;;;;9.87;55.37;99503.38;5054205;28;20044;-50
2021/10/23 03:24:33;;;;;;;19.33;3.88;;;;;;;9.88;55.63;99504.19;5036489;28;20053;-50
2021/10/23 03:26:59;;;;;;;8.13;3.40;;;;;;;9.92;55.27;99498.44;5036409;28;20053;-50
2021/10/23 03:29:24;;;;;;;15.13;4.38;;;;;;;9.93;55.32;99507.91;5054266;28;20029;-50
2021/10/23 03:31:50;;;;;;;21.27;4.72;;;;;;;9.91;55.23;99512.53;5054252;28;20508;-50
2021/10/23 03:34:16;;;;;;;23.95;4.38;;;;;;;9.94;54.91;99508.72;5036367;28;20031;-50
2021/10/23 03:36:42;;;;;;;23.15;5.88;;;;;;;9.87;55.19;99508.63;5054471;28;20021;-50
2021/10/23 03:39:07;;;;;;;16.13;4.00;;;;;;;9.74;55.09;99511.03;5054177;28;20495;-50
2021/10/23 03:41:34;;;;;;;13.40;4.60;;;;;;;9.58;55.50;99509.31;5052766;28;20540;-49
2021/10/23 03:44:00;;;;;;;21.40;4.10;;;;;;;9.49;55.63;99511.16;5054007;28;20032;-49
2021/10/23 03:46:26;;;;;;;13.00;4.55;;;;;;;9.42;55.56;99514.63;5036023;28;20027;-50
2021/10/23 03:48:52;;;;;;;13.00;4.22;;;;;;;9.42;55.81;99527.72;5053896;28;20017;-50
2021/10/23 03:51:17;;;;;;;14.23;5.25;;;;;;;9.33;56.01;99527.78;5053588;28;20074;-50
2021/10/23 03:53:43;;;;;;;12.35;4.40;;;;;;;9.27;56.09;99525.84;5035910;28;20078;-50
2021/10/23 03:56:09;;;;;;;11.95;4.13;;;;;;;9.18;56.37;99526.88;5053799;28;20028;-50
2021/10/23 03:58:34;;;;;;;12.13;3.58;;;;;;;9.08;56.26;99526.28;5053728;28;20029;-49
2021/10/23 04:01:00;;;;;;;17.20;4.95;;;;;;;9.10;56.77;99532.97;5053692;28;20448;-50
2021/10/23 04:03:26;;;;;;;9.35;4.40;;;;;;;9.24;56.99;99534.06;5035814;28;20028;-49
2021/10/23 04:05:51;;;;;;;12.52;3.97;;;;;;;9.36;56.33;99534.50;5053640;28;20021;-50
2021/10/23 04:08:17;;;;;;;9.02;3.78;;;;;;;9.23;56.60;99536.84;5053556;28;20399;-50
2021/10/23 04:10:43;;;;;;;15.05;4.00;;;;;;;9.27;56.46;99533.69;5035540;28;20112;-49
2021/10/23 04:13:09;;;;;;;12.80;4.18;;;;;;;9.16;56.20;99528.84;5053508;28;20018;-50
2021/10/23 04:15:35;;;;;;;14.20;4.47;;;;;;;9.09;56.62;99528.69;5052143;28;20033;-51
2021/10/23 04:18:02;;;;;;;25.08;6.10;;;;;;;9.03;56.81;99529.38;5035441;28;20040;-50
2021/10/23 04:20:28;;;;;;;26.80;5.30;;;;;;;9.06;56.70;99536.09;5053334;28;20071;-50
2021/10/23 04:22:53;;;;;;;10.70;4.90;;;;;;;9.05;56.60;99537.06;5035381;28;20040;-50
2021/10/23 04:25:20;;;;;;;18.58;4.53;;;;;;;9.02;57.09;99540.03;5053234;28;20495;-50
2021/10/23 04:27:46;;;;;;;15.98;4.57;;;;;;;9.05;56.55;99534.44;5035282;28;20112;-49
2021/10/23 04:30:12;;;;;;;14.82;5.18;;;;;;;9.06;56.91;99536.09;5053265;28;20748;-50
2021/10/23 04:32:38;;;;;;;9.73;3.50;;;;;;;9.15;56.77;99535.06;5034967;28;20025;-49
2021/10/23 04:35:04;;;;;;;23.65;4.85;;;;;;;9.12;56.55;99533.59;5052668;28;20032;-50
2021/10/23 04:37:31;;;;;;;10.40;3.72;;;;;;;9.09;56.77;99535.75;5035088;28;20028;-49
2021/10/23 04:39:57;;;;;;;15.38;4.28;;;;;;;9.09;56.70;99538.38;5035102;28;20025;-49
2021/10/23 04:42:23;;;;;;;12.10;4.70;;;;;;;9.11;56.69;99542.44;5035049;28;20025;-49
2021/10/23 04:44:49;;;;;;;11.02;4.03;;;;;;;9.14;57.30;99542.09;5052887;28;20047;-50
2021/10/23 04:47:15;;;;;;;23.25;5.40;;;;;;;9.30;57.07;99551.72;5034845;28;20486;-49
2021/10/23 04:49:40;;;;;;;17.13;4.60;;;;;;;9.38;56.02;99550.84;5052745;28;20386;-49
2021/10/23 04:52:06;;;;;;;23.88;5.30;;;;;;;9.31;56.46;99555.13;5034566;28;20049;-50
2021/10/23 04:54:32;;;;;;;10.43;4.78;;;;;;;9.24;56.09;99555.00;5052768;28;20075;-49
2021/10/23 04:56:58;;;;;;;16.35;4.60;;;;;;;9.14;56.39;99541.31;5052697;28;20025;-50
2021/10/23 04:59:23;;;;;;;17.52;4.85;;;;;;;9.08;56.38;99550.66;5034682;28;20499;-50
2021/10/23 05:01:49;;;;;;;11.38;4.85;;;;;;;8.97;56.78;99543.16;5052600;28;20052;-50
2021/10/23 05:04:15;;;;;;;9.65;4.13;;;;;;;8.74;56.29;99548.28;5052529;28;20486;-50
2021/10/23 05:06:40;;;;;;;11.90;4.47;;;;;;;8.42;57.04;99555.19;5034608;28;20025;-50
2021/10/23 05:09:06;;;;;;;19.73;4.90;;;;;;;8.27;57.44;99546.34;5052391;28;20398;-49
2021/10/23 05:11:32;;;;;;;12.85;4.95;;;;;;;8.16;57.80;99553.53;5052406;28;20027;-49
2021/10/23 05:13:58;;;;;;;14.02;5.10;;;;;;;8.08;58.25;99553.53;5034445;28;20032;-49
2021/10/23 05:16:23;;;;;;;11.55;5.13;;;;;;;8.09;58.12;99555.19;5052337;28;20088;-49
2021/10/23 05:18:49;;;;;;;10.93;4.53;;;;;;;8.12;58.66;99557.44;5052230;28;20025;-49
2021/10/23 05:21:17;;;;;;;20.98;5.10;;;;;;;7.94;58.63;99554.19;5034331;28;20060;-50
2021/10/23 05:23:44;;;;;;;8.60;5.38;;;;;;;7.65;59.50;99552.81;5052220;28;20537;-50
2021/10/23 05:26:10;;;;;;;13.75;4.88;;;;;;;7.32;59.48;99554.50;5052174;28;20025;-50
2021/10/23 05:28:35;;;;;;;13.55;5.85;;;;;;;7.05;59.71;99552.94;5052029;28;20106;-49
2021/10/23 05:31:01;;;;;;;20.48;4.97;;;;;;;6.91;60.79;99549.94;5052050;28;20029;-49
2021/10/23 05:33:27;;;;;;;13.05;4.80;;;;;;;6.80;60.87;99551.03;5052276;28;20053;-50
2021/10/23 05:35:52;;;;;;;17.30;4.97;;;;;;;6.73;60.85;99546.56;5051970;28;20037;-49
2021/10/23 05:38:18;;;;;;;14.50;4.07;;;;;;;6.75;61.47;99549.84;5034105;28;20391;-49
2021/10/23 05:40:44;;;;;;;15.48;4.57;;;;;;;6.71;61.53;99551.94;5051810;28;20028;-49
2021/10/23 05:43:10;;;;;;;7.45;4.28;;;;;;;6.58;61.17;99544.53;5051880;28;20025;-49
2021/10/23 05:45:35;;;;;;;15.27;5.13;;;;;;;6.38;61.60;99553.53;5051856;28;20025;-49
2021/10/23 05:48:01;;;;;;;12.10;4.80;;;;;;;6.23;61.44;99560.22;5051801;28;20100;-49
2021/10/23 05:50:27;;;;;;;13.50;4.57;;;;;;;6.04;62.53;99553.38;5051434;28;20129;-50
2021/10/23 05:52:53;;;;;;;10.82;4.75;;;;;;;5.93;62.07;99552.59;5050540;28;20079;-49
2021/10/23 05:55:18;;;;;;;7.72;4.63;;;;;;;5.77;61.94;99557.66;5051662;28;20028;-49
2021/10/23 05:57:44;;;;;;;9.23;5.63;;;;;;;5.64;62.17;99552.81;5033861;28;20041;-49
2021/10/23 06:00:11;;;;;;;11.80;4.95;;;;;;;5.53;62.44;99555.63;5051650;28;20487;-49
2021/10/23 06:02:38;;;;;;;13.55;6.05;;;;;;;5.45;62.41;99555.53;5051682;28;20487;-49
2021/10/23 06:05:04;;;;;;;10.57;5.47;;;;;;;5.42;62.43;99555.84;5051783;28;20779;-50
2021/10/23 06:07:36;;;;;;;8.60;4.50;;;;;;;5.33;62.94;99540.13;5051629;28;20021;-49
2021/10/23 06:10:05;;;;;;;8.77;5.18;;;;;;;5.21;63.20;99551.69;5051573;28;20555;-49
2021/10/23 06:12:31;;;;;;;14.23;6.15;;;;;;;5.13;62.99;99557.63;5051602;28;20117;-49
2021/10/23 06:14:58;;;;;;;16.00;5.80;;;;;;;5.07;63.60;99563.41;5051575;28;20096;-49
2021/10/23 06:17:24;;;;;;;12.52;5.78;;;;;;;5.12;63.86;99568.16;5051498;28;20491;-49
2021/10/23 06:19:50;;;;;;;14.88;6.43;;;;;;;5.15;63.76;99560.91;5051496;28;20029;-49
2021/10/23 06:22:15;;;;;;;12.35;6.63;;;;;;;5.20;63.86;99565.66;5033587;28;20029;-48
2021/10/23 06:24:41;;;;;;;14.88;6.55;;;;;;;5.14;64.27;99563.63;5033593;28;20399;-49
2021/10/23 06:27:07;;;;;;;12.68;5.80;;;;;;;5.11;64.37;99563.91;5033544;28;20021;-50
2021/10/23 06:29:33;;;;;;;12.15;5.20;;;;;;;5.31;65.08;99562.03;5051416;28;20078;-50
2021/10/23 06:31:59;;;;;;;11.05;4.70;;;;;;;5.82;64.36;99563.25;5033509;28;20403;-49
2021/10/23 06:34:25;;;;;;;10.20;4.65;;;;;;;6.42;62.76;99562.69;5051373;28;20021;-50
2021/10/23 06:36:51;;;;;;;11.55;5.47;;;;;;;7.11;61.46;99560.97;5033468;28;20086;-49
2021/10/23 06:39:16;;;;;;;11.85;5.85;;;;;;;7.79;60.23;99567.06;5051343;28;20028;-49
2021/10/23 06:41:42;;;;;;;14.57;5.30;;;;;;;8.49;58.01;99566.66;5051249;28;20108;-49
2021/10/23 06:44:08;;;;;;;13.38;5.78;;;;;;;9.10;56.83;99566.19;5051288;28;20391;-49
2021/10/23 06:46:36;;;;;;;11.18;4.82;;;;;;;9.53;54.70;99569.28;5051264;28;20112;-50
2021/10/23 06:49:06;;;;;;;9.23;5.30;;;;;;;9.88;53.47;99567.09;5051254;28;20130;-50
2021/10/23 06:51:33;;;;;;;10.48;4.97;;;;;;;10.29;52.91;99569.44;5051128;28;20048;-49
2021/10/23 06:54:00;;;;;;;12.95;5.95;;;;;;;10.77;51.06;99562.16;5051527;28;20032;-50
2021/10/23 06:56:29;;;;;;;14.15;4.82;;;;;;;11.20;50.58;99562.31;5033993;28;20017;-50
2021/10/23 06:58:55;;;;;;;8.57;5.13;;;;;;;11.68;48.89;99565.31;5053652;28;20029;-50
2021/10/23 07:01:22;;;;;;;9.50;5.13;;;;;;;12.05;48.00;99560.06;5054859;28;20029;-50
2021/10/23 07:03:47;;;;;;;12.30;5.00;;;;;;;12.34;46.48;99569.66;5054887;28;20028;-50
2021/10/23 07:06:14;;;;;;;10.48;5.00;;;;;;;12.55;45.77;99569.59;5054790;28;20028;-50
2021/10/23 07:08:39;;;;;;;12.77;6.55;;;;;;;12.69;44.89;99567.88;5054659;28;20573;-50
2021/10/23 07:11:07;;;;;;;9.43;5.65;;;;;;;12.55;45.21;99568.78;5054661;28;20025;-50
2021/10/23 07:13:32;;;;;;;16.35;5.35;;;;;;;12.62;45.44;99572.28;5054712;28;20103;-50
2021/10/23 07:15:58;;;;;;;9.77;4.88;;;;;;;12.73;44.88;99579.66;5054604;28;20155;-50
2021/10/23 07:18:24;;;;;;;9.57;5.15;;;;;;;12.65;45.31;99585.06;5054515;28;20025;-51
2021/10/23 07:20:50;;;;;;;9.73;4.82;;;;;;;12.54;45.55;99588.22;5036575;28;20383;-50
2021/10/23 07:23:15;;;;;;;12.00;5.15;;;;;;;12.37;45.80;99598.19;5036537;28;20035;-50
2021/10/23 07:25:41;;;;;;;14.73;5.32;;;;;;;11.96;46.09;99596.22;5036447;28;20063;-50
2021/10/23 07:28:07;;;;;;;16.60;5.88;;;;;;;11.46;47.01;99595.19;5036467;28;20025;-50
2021/10/23 07:30:33;;;;;;;10.23;5.35;;;;;;;11.13;48.26;99601.66;5053070;28;20404;-50
2021/10/23 07:32:59;;;;;;;8.88;5.28;;;;;;;11.39;48.71;99598.56;5054257;28;20051;-50
2021/10/23 07:35:25;;;;;;;11.23;4.97;;;;;;;11.81;48.24;99596.19;5036334;28;20094;-50
2021/10/23 07:37:51;;;;;;;20.40;6.95;;;;;;;12.34;48.04;99595.97;5054209;28;20056;-50
2021/10/23 07:40:16;;;;;;;8.32;4.85;;;;;;;12.97;46.82;99598.66;5054175;28;20033;-50
2021/10/23 07:42:45;;;;;;;13.27;5.47;;;;;;;13.57;46.04;99593.72;5036240;28;20068;-51
2021/10/23 07:45:13;;;;;;;9.35;5.50;;;;;;;14.10;44.95;99591.22;5054269;28;20441;-50
2021/10/23 07:47:40;;;;;;;12.00;4.82;;;;;;;14.92;43.85;99591.03;5052721;28;20535;-50
2021/10/23 07:50:07;;;;;;;10.38;4.97;;;;;;;15.70;41.90;99584.88;5053309;28;20048;-50
2021/10/23 07:52:33;;;;;;;10.80;4.72;;;;;;;15.83;41.16;99584.03;5053936;28;20041;-50
2021/10/23 07:55:00;;;;;;;9.38;4.90;;;;;;;16.05;41.51;99582.66;5035959;28;20027;-50
2021/10/23 07:57:25;;;;;;;11.20;5.03;;;;;;;16.69;40.05;99578.09;5053789;28;20053;-50
2021/10/23 07:59:51;;;;;;;16.08;4.72;;;;;;;17.82;38.34;99570.69;5053814;28;20055;-50
2021/10/23 08:02:17;;;;;;;11.20;4.72;;;;;;;18.02;37.33;99570.44;5053714;28;20028;-50
2021/10/23 08:04:42;;;;;;;8.48;4.47;;;;;;;17.23;38.13;99575.72;5053707;28;20499;-51
2021/10/23 08:07:08;;;;;;;11.70;4.90;;;;;;;17.24;38.66;99571.22;5053570;28;20483;-51
2021/10/23 08:09:36;;;;;;;276.58;246.57;;;;;;;17.82;37.01;99570.69;5052441;28;20017;-50
2021/10/23 08:12:03;;;;;;;31.40;20.88;;;;;;;16.97;37.56;99567.03;5053739;28;20474;-50
2021/10/23 08:14:30;;;;;;;35.10;26.08;;;;;;;15.88;39.18;99581.56;5053530;28;20373;-50
2021/10/23 08:16:56;;;;;;;14.80;9.68;;;;;;;14.61;41.06;99589.88;5053401;28;20029;-50
2021/10/23 08:19:23;;;;;;;12.15;5.80;;;;;;;13.72;42.88;99593.56;5053428;28;20437;-50
2021/10/23 08:21:49;;;;;;;16.40;6.90;;;;;;;13.10;44.05;99588.19;5053368;28;20158;-50
2021/10/23 08:24:15;;;;;;;10.63;4.97;;;;;;;12.82;45.20;99597.94;5053292;28;20029;-50
2021/10/23 08:26:43;;;;;;;16.02;5.60;;;;;;;13.15;45.27;99595.53;5053267;28;20441;-51
2021/10/23 08:29:10;;;;;;;10.55;4.68;;;;;;;13.22;45.16;99598.19;5053153;28;20136;-50
2021/10/23 08:31:40;;;;;;;16.23;4.40;;;;;;;13.41;45.54;99597.50;5053013;28;20132;-50
2021/10/23 08:34:05;;;;;;;10.43;4.47;;;;;;;15.30;43.62;99591.16;5053109;28;20020;-51
2021/10/23 08:36:32;;;;;;;8.35;4.05;;;;;;;17.50;39.47;99591.31;5053081;28;20029;-51
2021/10/23 08:38:57;;;;;;;12.68;4.13;;;;;;;18.14;37.15;99589.88;5053077;28;20028;-51
2021/10/23 08:41:24;;;;;;;9.25;3.95;;;;;;;19.26;35.77;99582.88;5035073;28;20025;-51
2021/10/23 08:43:54;;;;;;;12.68;4.05;;;;;;;19.66;33.95;99590.03;5052989;28;20027;-48
2021/10/23 08:46:22;;;;;;;11.65;4.90;;;;;;;18.58;35.36;99580.81;5052886;28;20102;-48
2021/10/23 08:48:53;;;;;;;8.90;4.68;;;;;;;18.89;34.88;99575.16;5052794;28;20021;-48
2021/10/23 08:51:23;;;;;;;5.85;3.63;;;;;;;19.39;34.25;99573.78;5052213;28;20430;-48
2021/10/23 08:53:50;;;;;;;8.82;4.10;;;;;;;19.58;33.72;99571.78;5052769;28;20108;-48
2021/10/23 08:56:16;;;;;;;11.15;3.63;;;;;;;19.90;32.66;99571.28;5052669;28;20033;-49
2021/10/23 08:58:41;;;;;;;11.55;3.83;;;;;;;20.46;32.19;99568.75;5052654;28;20406;-48
2021/10/23 09:01:10;;;;;;;9.25;3.70;;;;;;;20.94;31.47;99573.47;5052565;28;20078;-48
2021/10/23 09:03:37;;;;;;;7.45;3.97;;;;;;;21.63;30.57;99568.72;5034662;28;20029;-49
2021/10/23 09:06:03;;;;;;;8.35;3.05;;;;;;;21.91;29.50;99562.31;5052542;28;20029;-48
2021/10/23 09:08:29;;;;;;;7.85;3.72;;;;;;;22.27;29.37;99568.78;5034572;28;20424;-49
2021/10/23 09:10:57;;;;;;;8.25;3.47;;;;;;;22.74;28.17;99567.25;5052352;28;20028;-49
2021/10/23 09:13:34;;;;;;;5.43;3.03;;;;;;;22.48;28.16;99574.31;5052437;28;20078;-48
2021/10/23 09:16:18;;;;;;;5.80;3.08;;;;;;;22.54;27.89;99558.03;5052645;28;20029;-47
2021/10/23 09:18:46;;;;;;;7.18;3.67;;;;;;;22.89;27.54;99561.97;5051020;28;20115;-49
2021/10/23 09:21:22;;;;;;;5.20;3.03;;;;;;;23.29;27.26;99562.44;5052041;28;20021;-48
2021/10/23 09:23:51;;;;;;;8.07;3.13;;;;;;;23.66;26.82;99556.13;5034323;28;20032;-49
2021/10/23 09:26:37;;;;;;;7.75;3.72;;;;;;;24.00;26.33;99555.66;5052155;28;20137;-48
2021/10/23 09:29:33;;;;;;;9.98;3.60;;;;;;;24.30;26.50;99560.22;5052035;28;20052;-48
2021/10/23 09:31:59;;;;;;;8.35;3.42;;;;;;;24.99;25.49;99561.44;5039090;28;20040;-50
2021/10/23 09:34:24;;;;;;;7.25;3.25;;;;;;;25.75;24.74;99556.78;5052002;28;20082;-49
2021/10/23 09:36:55;;;;;;;9.05;3.35;;;;;;;25.93;24.14;99555.34;5051968;28;20024;-49
2021/10/23 09:39:47;;;;;;;7.95;3.53;;;;;;;25.14;24.89;99557.91;5052000;28;20024;-49
2021/10/23 09:42:15;;;;;;;5.97;3.20;;;;;;;24.65;25.09;99561.25;5048926;28;20115;-50
2021/10/23 09:45:04;;;;;;;12.02;3.42;;;;;;;25.08;25.04;99559.00;5051903;28;20107;-49
2021/10/23 09:47:44;;;;;;;5.38;2.97;;;;;;;25.15;24.80;99567.53;5034005;28;20090;-49
2021/10/23 09:50:15;;;;;;;13.95;3.75;;;;;;;25.52;24.50;99569.81;5051134;28;20029;-48
2021/10/23 09:53:01;;;;;;;11.85;3.58;;;;;;;25.48;24.55;99576.03;5050555;28;20503;-49
2021/10/23 09:55:39;;;;;;;8.73;4.03;;;;;;;25.91;23.85;99573.66;5051772;28;20071;-49
2021/10/23 09:58:22;;;;;;;5.20;2.80;;;;;;;25.98;23.70;99568.75;5051745;28;20064;-48
2021/10/23 10:00:49;;;;;;;6.95;3.10;;;;;;;26.17;22.94;99568.88;5052280;28;20111;-49
2021/10/23 10:03:19;;;;;;;9.90;2.80;;;;;;;25.99;23.11;99572.25;5051642;28;20637;-49
2021/10/23 10:05:50;;;;;;;10.77;3.30;;;;;;;25.68;23.40;99569.75;5051638;28;20041;-49
2021/10/23 10:08:16;;;;;;;6.85;3.28;;;;;;;25.34;23.67;99572.34;5033722;28;20040;-50
2021/10/23 10:10:45;;;;;;;9.20;3.10;;;;;;;25.37;23.73;99563.72;5051437;28;20021;-49
2021/10/23 10:13:14;;;;;;;8.80;3.30;;;;;;;25.18;23.91;99566.22;5051571;28;20025;-49
2021/10/23 10:15:52;;;;;;;5.05;3.60;;;;;;;24.74;24.28;99565.00;5051548;28;20021;-48
2021/10/23 10:18:22;;;;;;;7.47;3.30;;;;;;;24.66;24.60;99568.25;5051413;28;20028;-49
2021/10/23 10:20:51;;;;;;;7.80;3.00;;;;;;;24.73;24.60;99576.84;5051465;28;20021;-49
2021/10/23 10:23:29;;;;;;;8.27;3.20;;;;;;;24.57;24.64;99580.59;5051487;28;20021;-50
2021/10/23 10:26:40;;;;;;;6.45;3.20;;;;;;;24.33;25.01;99573.09;5051578;28;20025;-49
2021/10/23 10:29:07;;;;;;;10.48;3.45;;;;;;;24.67;24.92;99567.16;5049538;28;20037;-50
2021/10/23 10:32:02;;;;;;;7.53;2.78;;;;;;;25.03;24.73;99572.44;5052435;28;20040;-49
2021/10/23 10:42:53;;;;;;;5.47;2.50;;;;;;;25.74;22.80;99567.84;5055598;28;20043;-49
2021/10/23 10:45:41;;;;;;;9.77;2.55;;;;;;;26.00;22.77;99563.91;5055403;28;20040;-49
2021/10/23 10:48:25;;;;;;;6.68;2.97;;;;;;;26.30;22.21;99560.16;5055128;28;20036;-50
2021/10/23 10:51:14;;;;;;;4.88;2.90;;;;;;;26.13;22.08;99559.75;5054750;28;20045;-50
2021/10/23 10:54:05;;;;;;;9.80;3.20;;;;;;;26.27;22.70;99558.00;5053926;28;20036;-49
2021/10/23 10:56:45;;;;;;;8.13;2.67;;;;;;;26.50;22.30;99556.47;5055021;28;20112;-50
2021/10/23 10:59:11;;;;;;;7.45;2.67;;;;;;;26.72;21.41;99557.09;5054985;28;20060;-49
2021/10/23 11:01:37;;;;;;;5.28;2.45;;;;;;;26.70;21.42;99546.59;5054917;28;20048;-50
2021/10/23 11:04:08;;;;;;;7.68;3.08;;;;;;;26.82;21.27;99547.00;5054863;28;20115;-49
2021/10/23 11:06:34;;;;;;;8.55;2.90;;;;;;;26.71;21.21;99542.81;5036926;28;20035;-49
2021/10/23 11:09:12;;;;;;;6.20;2.80;;;;;;;26.64;21.21;99543.16;5054639;28;20033;-48
2021/10/23 11:11:43;;;;;;;6.50;2.72;;;;;;;26.16;21.44;99540.38;5054964;28;20021;-49
2021/10/23 11:16:54;;;;;;;3.47;2.22;;;;;;;26.11;21.90;99535.81;5054645;28;20115;-49
2021/10/23 11:19:28;;;;;;;8.27;2.55;;;;;;;25.93;21.68;99544.59;5054580;28;20061;-49
2021/10/23 11:22:02;;;;;;;7.32;2.40;;;;;;;26.21;21.66;99534.13;5054519;28;20023;-49
2021/10/23 11:24:47;;;;;;;3.88;2.00;;;;;;;26.45;21.19;99532.28;5054576;28;20116;-49
2021/10/23 11:27:26;;;;;;;;;;;;;;;26.76;21.68;99523.91;5053637;28;20465;-50
2021/10/23 11:30:11;;;;;;;5.60;2.00;;;;;;;26.29;21.18;99523.56;5036406;28;19922;-49
2021/10/23 11:32:41;;;;;;;;;;;;;;;26.29;21.90;99514.69;5054695;28;20033;-50
2021/10/23 11:35:08;;;;;;;4.85;2.00;;;;;;;25.84;21.70;99513.97;5054174;28;19916;-49
2021/10/23 11:37:34;;;;;;;6.25;2.08;;;;;;;25.89;21.43;99514.72;5036375;28;20410;-49
2021/10/23 11:40:11;;;;;;;10.10;1.92;;;;;;;25.84;21.08;99519.34;5054198;28;20025;-50
2021/10/23 11:42:46;;;;;;;5.45;2.10;;;;;;;25.46;21.47;99519.06;5054379;28;20029;-49
2021/10/23 11:45:18;;;;;;;7.05;1.98;;;;;;;25.30;21.61;99519.16;5054193;28;20072;-50
2021/10/23 11:47:45;;;;;;;2.78;1.50;;;;;;;25.26;21.45;99523.47;5054110;28;20586;-49
2021/10/23 11:50:32;;;;;;;4.45;2.10;;;;;;;25.45;21.59;99520.16;5053669;28;20052;-50